sensor_id;sensor_type;location;lat;lon;timestamp;P1;durP1;ratioP1;P2;durP2;ratioP2
46439;SDS011;32138;50.966;6.968;2024-02-26T00:00:41;2.15;;;1.00;;
46439;SDS011;32138;50.966;6.968;2024-02-26T00:02:12;2.72;;;1.02;;
46439;SDS011;32138;50.966;6.968;2024-02-26T00:03:42;3.08;;;1.20;;
46439;SDS011;32138;50.966;6.968;2024-02-26T00:05:15;2.50;;;0.80;;
46439;SDS011;32138;50.966;6.968;2024-02-26T00:06:46;3.17;;;1.00;;
46439;SDS011;32138;50.966;6.968;2024-02-26T00:08:18;1.17;;;0.57;;
46439;SDS011;32138;50.966;6.968;2024-02-26T00:09:48;2.47;;;0.90;;
46439;SDS011;32138;50.966;6.968;2024-02-26T00:11:19;4.20;;;1.27;;
46439;SDS011;32138;50.966;6.968;2024-02-26T00:12:50;2.58;;;1.00;;
46439;SDS011;32138;50.966;6.968;2024-02-26T00:14:20;1.92;;;0.68;;
46439;SDS011;32138;50.966;6.968;2024-02-26T00:15:51;1.55;;;0.70;;
46439;SDS011;32138;50.966;6.968;2024-02-26T00:17:22;1.50;;;0.90;;
46439;SDS011;32138;50.966;6.968;2024-02-26T00:18:53;2.00;;;0.80;;
46439;SDS011;32138;50.966;6.968;2024-02-26T00:20:23;2.45;;;0.77;;
46439;SDS011;32138;50.966;6.968;2024-02-26T00:21:54;2.13;;;1.00;;
46439;SDS011;32138;50.966;6.968;2024-02-26T00:23:25;1.90;;;1.05;;
46439;SDS011;32138;50.966;6.968;2024-02-26T00:24:57;2.17;;;0.70;;
46439;SDS011;32138;50.966;6.968;2024-02-26T00:26:28;2.45;;;1.10;;
46439;SDS011;32138;50.966;6.968;2024-02-26T00:27:58;2.78;;;1.20;;
46439;SDS011;32138;50.966;6.968;2024-02-26T00:29:29;2.53;;;1.10;;
46439;SDS011;32138;50.966;6.968;2024-02-26T00:31:00;1.95;;;0.70;;
46439;SDS011;32138;50.966;6.968;2024-02-26T00:32:31;1.95;;;1.00;;
46439;SDS011;32138;50.966;6.968;2024-02-26T00:34:03;1.25;;;0.73;;
46439;SDS011;32138;50.966;6.968;2024-02-26T00:35:33;2.42;;;1.20;;
46439;SDS011;32138;50.966;6.968;2024-02-26T00:37:04;1.80;;;1.02;;
46439;SDS011;32138;50.966;6.968;2024-02-26T00:38:35;2.90;;;1.13;;
46439;SDS011;32138;50.966;6.968;2024-02-26T00:40:06;1.75;;;1.05;;
46439;SDS011;32138;50.966;6.968;2024-02-26T00:41:41;1.20;;;0.80;;
46439;SDS011;32138;50.966;6.968;2024-02-26T00:43:12;3.33;;;0.95;;
46439;SDS011;32138;50.966;6.968;2024-02-26T00:44:43;1.50;;;0.75;;
46439;SDS011;32138;50.966;6.968;2024-02-26T00:46:14;2.15;;;1.00;;
46439;SDS011;32138;50.966;6.968;2024-02-26T00:47:44;1.92;;;0.73;;
46439;SDS011;32138;50.966;6.968;2024-02-26T00:49:17;2.60;;;0.98;;
46439;SDS011;32138;50.966;6.968;2024-02-26T00:50:47;1.60;;;0.95;;
46439;SDS011;32138;50.966;6.968;2024-02-26T00:52:18;3.05;;;0.77;;
46439;SDS011;32138;50.966;6.968;2024-02-26T00:53:49;2.10;;;1.17;;
46439;SDS011;32138;50.966;6.968;2024-02-26T00:55:20;2.08;;;0.70;;
46439;SDS011;32138;50.966;6.968;2024-02-26T00:56:50;2.15;;;1.02;;
46439;SDS011;32138;50.966;6.968;2024-02-26T00:58:21;2.92;;;1.30;;
46439;SDS011;32138;50.966;6.968;2024-02-26T00:59:52;2.65;;;1.17;;
46439;SDS011;32138;50.966;6.968;2024-02-26T01:01:23;2.28;;;1.10;;
46439;SDS011;32138;50.966;6.968;2024-02-26T01:02:53;2.72;;;0.98;;
46439;SDS011;32138;50.966;6.968;2024-02-26T01:04:24;3.75;;;0.85;;
46439;SDS011;32138;50.966;6.968;2024-02-26T01:05:55;2.15;;;0.80;;
46439;SDS011;32138;50.966;6.968;2024-02-26T01:07:25;3.75;;;1.15;;
46439;SDS011;32138;50.966;6.968;2024-02-26T01:08:56;2.88;;;0.80;;
46439;SDS011;32138;50.966;6.968;2024-02-26T01:10:27;3.08;;;1.02;;
46439;SDS011;32138;50.966;6.968;2024-02-26T01:11:58;2.70;;;1.08;;
46439;SDS011;32138;50.966;6.968;2024-02-26T01:13:28;2.78;;;0.90;;
46439;SDS011;32138;50.966;6.968;2024-02-26T01:15:00;1.75;;;0.73;;
46439;SDS011;32138;50.966;6.968;2024-02-26T01:16:32;2.65;;;0.70;;
46439;SDS011;32138;50.966;6.968;2024-02-26T01:18:03;1.80;;;0.80;;
46439;SDS011;32138;50.966;6.968;2024-02-26T01:19:34;4.25;;;0.95;;
46439;SDS011;32138;50.966;6.968;2024-02-26T01:21:05;1.63;;;0.85;;
46439;SDS011;32138;50.966;6.968;2024-02-26T01:22:38;1.83;;;0.80;;
46439;SDS011;32138;50.966;6.968;2024-02-26T01:24:10;2.83;;;0.85;;
46439;SDS011;32138;50.966;6.968;2024-02-26T01:25:42;1.55;;;0.70;;
46439;SDS011;32138;50.966;6.968;2024-02-26T01:27:13;1.25;;;0.55;;
46439;SDS011;32138;50.966;6.968;2024-02-26T01:28:46;1.15;;;0.55;;
46439;SDS011;32138;50.966;6.968;2024-02-26T01:30:18;2.42;;;0.60;;
46439;SDS011;32138;50.966;6.968;2024-02-26T01:31:48;1.45;;;0.60;;
46439;SDS011;32138;50.966;6.968;2024-02-26T01:33:19;1.85;;;0.73;;
46439;SDS011;32138;50.966;6.968;2024-02-26T01:34:50;1.95;;;0.80;;
46439;SDS011;32138;50.966;6.968;2024-02-26T01:36:21;1.92;;;0.70;;
46439;SDS011;32138;50.966;6.968;2024-02-26T01:37:51;1.65;;;0.60;;
46439;SDS011;32138;50.966;6.968;2024-02-26T01:39:22;1.83;;;0.93;;
46439;SDS011;32138;50.966;6.968;2024-02-26T01:40:53;2.58;;;0.82;;
46439;SDS011;32138;50.966;6.968;2024-02-26T01:42:23;1.45;;;0.50;;
46439;SDS011;32138;50.966;6.968;2024-02-26T01:43:54;3.10;;;0.75;;
46439;SDS011;32138;50.966;6.968;2024-02-26T01:45:25;3.15;;;0.82;;
46439;SDS011;32138;50.966;6.968;2024-02-26T01:46:55;2.05;;;0.80;;
46439;SDS011;32138;50.966;6.968;2024-02-26T01:48:26;2.67;;;0.88;;
46439;SDS011;32138;50.966;6.968;2024-02-26T01:49:57;1.58;;;0.63;;
46439;SDS011;32138;50.966;6.968;2024-02-26T01:51:28;2.97;;;0.77;;
46439;SDS011;32138;50.966;6.968;2024-02-26T01:53:01;1.33;;;0.80;;
46439;SDS011;32138;50.966;6.968;2024-02-26T01:54:33;2.17;;;0.93;;
46439;SDS011;32138;50.966;6.968;2024-02-26T01:56:07;1.63;;;0.73;;
46439;SDS011;32138;50.966;6.968;2024-02-26T01:57:38;2.25;;;0.75;;
46439;SDS011;32138;50.966;6.968;2024-02-26T01:59:09;1.73;;;0.60;;
46439;SDS011;32138;50.966;6.968;2024-02-26T02:00:40;2.05;;;0.75;;
46439;SDS011;32138;50.966;6.968;2024-02-26T02:02:10;1.63;;;0.63;;
46439;SDS011;32138;50.966;6.968;2024-02-26T02:03:43;1.42;;;0.65;;
46439;SDS011;32138;50.966;6.968;2024-02-26T02:05:15;1.70;;;0.60;;
46439;SDS011;32138;50.966;6.968;2024-02-26T02:06:49;2.75;;;0.70;;
46439;SDS011;32138;50.966;6.968;2024-02-26T02:08:22;3.08;;;0.60;;
46439;SDS011;32138;50.966;6.968;2024-02-26T02:09:53;2.33;;;0.90;;
46439;SDS011;32138;50.966;6.968;2024-02-26T02:11:24;1.95;;;0.60;;
46439;SDS011;32138;50.966;6.968;2024-02-26T02:12:55;1.50;;;0.75;;
46439;SDS011;32138;50.966;6.968;2024-02-26T02:14:25;1.10;;;0.57;;
46439;SDS011;32138;50.966;6.968;2024-02-26T02:15:56;0.90;;;0.50;;
46439;SDS011;32138;50.966;6.968;2024-02-26T02:17:27;1.65;;;0.50;;
46439;SDS011;32138;50.966;6.968;2024-02-26T02:18:58;1.08;;;0.50;;
46439;SDS011;32138;50.966;6.968;2024-02-26T02:20:32;2.50;;;1.05;;
46439;SDS011;32138;50.966;6.968;2024-02-26T02:22:04;1.60;;;0.65;;
46439;SDS011;32138;50.966;6.968;2024-02-26T02:23:34;2.35;;;0.68;;
46439;SDS011;32138;50.966;6.968;2024-02-26T02:25:05;2.30;;;0.85;;
46439;SDS011;32138;50.966;6.968;2024-02-26T02:26:36;1.90;;;0.80;;
46439;SDS011;32138;50.966;6.968;2024-02-26T02:28:07;2.10;;;0.98;;
46439;SDS011;32138;50.966;6.968;2024-02-26T02:29:39;0.73;;;0.43;;
46439;SDS011;32138;50.966;6.968;2024-02-26T02:31:10;2.03;;;0.68;;
46439;SDS011;32138;50.966;6.968;2024-02-26T02:32:41;1.55;;;0.57;;
46439;SDS011;32138;50.966;6.968;2024-02-26T02:34:12;1.48;;;0.60;;
46439;SDS011;32138;50.966;6.968;2024-02-26T02:35:43;4.07;;;1.33;;
46439;SDS011;32138;50.966;6.968;2024-02-26T02:37:14;1.02;;;0.43;;
46439;SDS011;32138;50.966;6.968;2024-02-26T02:38:48;0.73;;;0.52;;
46439;SDS011;32138;50.966;6.968;2024-02-26T02:40:20;1.30;;;0.60;;
46439;SDS011;32138;50.966;6.968;2024-02-26T02:41:51;1.63;;;0.65;;
46439;SDS011;32138;50.966;6.968;2024-02-26T02:43:22;2.33;;;0.63;;
46439;SDS011;32138;50.966;6.968;2024-02-26T02:44:52;2.78;;;0.85;;
46439;SDS011;32138;50.966;6.968;2024-02-26T02:46:23;1.65;;;0.60;;
46439;SDS011;32138;50.966;6.968;2024-02-26T02:47:54;1.73;;;0.70;;
46439;SDS011;32138;50.966;6.968;2024-02-26T02:49:25;2.25;;;1.00;;
46439;SDS011;32138;50.966;6.968;2024-02-26T02:50:56;2.63;;;0.80;;
46439;SDS011;32138;50.966;6.968;2024-02-26T02:52:26;1.23;;;0.70;;
46439;SDS011;32138;50.966;6.968;2024-02-26T02:53:57;1.85;;;0.80;;
46439;SDS011;32138;50.966;6.968;2024-02-26T02:55:28;3.08;;;0.90;;
46439;SDS011;32138;50.966;6.968;2024-02-26T02:56:58;2.17;;;0.60;;
46439;SDS011;32138;50.966;6.968;2024-02-26T02:58:29;2.17;;;0.80;;
46439;SDS011;32138;50.966;6.968;2024-02-26T03:00:00;1.95;;;0.95;;
46439;SDS011;32138;50.966;6.968;2024-02-26T03:01:33;2.20;;;0.95;;
46439;SDS011;32138;50.966;6.968;2024-02-26T03:03:04;1.38;;;0.75;;
46439;SDS011;32138;50.966;6.968;2024-02-26T03:04:35;1.48;;;0.70;;
46439;SDS011;32138;50.966;6.968;2024-02-26T03:06:06;2.03;;;0.80;;
46439;SDS011;32138;50.966;6.968;2024-02-26T03:07:36;3.13;;;1.10;;
46439;SDS011;32138;50.966;6.968;2024-02-26T03:09:07;2.72;;;0.60;;
46439;SDS011;32138;50.966;6.968;2024-02-26T03:10:38;2.17;;;0.70;;
46439;SDS011;32138;50.966;6.968;2024-02-26T03:12:09;0.90;;;0.47;;
46439;SDS011;32138;50.966;6.968;2024-02-26T03:13:39;1.77;;;1.00;;
46439;SDS011;32138;50.966;6.968;2024-02-26T03:15:11;1.50;;;0.65;;
46439;SDS011;32138;50.966;6.968;2024-02-26T03:16:42;1.23;;;0.77;;
46439;SDS011;32138;50.966;6.968;2024-02-26T03:18:12;1.38;;;0.63;;
46439;SDS011;32138;50.966;6.968;2024-02-26T03:19:46;1.42;;;0.57;;
46439;SDS011;32138;50.966;6.968;2024-02-26T03:21:17;1.50;;;0.52;;
46439;SDS011;32138;50.966;6.968;2024-02-26T03:22:48;1.08;;;0.65;;
46439;SDS011;32138;50.966;6.968;2024-02-26T03:24:19;1.27;;;0.90;;
46439;SDS011;32138;50.966;6.968;2024-02-26T03:25:49;1.70;;;0.82;;
46439;SDS011;32138;50.966;6.968;2024-02-26T03:27:20;1.88;;;0.68;;
46439;SDS011;32138;50.966;6.968;2024-02-26T03:28:51;1.50;;;0.55;;
46439;SDS011;32138;50.966;6.968;2024-02-26T03:30:22;2.58;;;0.90;;
46439;SDS011;32138;50.966;6.968;2024-02-26T03:31:53;1.80;;;0.68;;
46439;SDS011;32138;50.966;6.968;2024-02-26T03:33:23;1.05;;;0.77;;
46439;SDS011;32138;50.966;6.968;2024-02-26T03:34:54;1.27;;;0.50;;
46439;SDS011;32138;50.966;6.968;2024-02-26T03:36:25;1.17;;;0.70;;
46439;SDS011;32138;50.966;6.968;2024-02-26T03:37:56;2.20;;;0.75;;
46439;SDS011;32138;50.966;6.968;2024-02-26T03:39:27;3.00;;;0.70;;
46439;SDS011;32138;50.966;6.968;2024-02-26T03:40:58;2.13;;;0.98;;
46439;SDS011;32138;50.966;6.968;2024-02-26T03:42:29;1.95;;;0.50;;
46439;SDS011;32138;50.966;6.968;2024-02-26T03:44:00;8.13;;;4.50;;
46439;SDS011;32138;50.966;6.968;2024-02-26T03:45:31;7.07;;;3.15;;
46439;SDS011;32138;50.966;6.968;2024-02-26T03:47:02;2.33;;;0.85;;
46439;SDS011;32138;50.966;6.968;2024-02-26T03:48:33;2.58;;;0.70;;
46439;SDS011;32138;50.966;6.968;2024-02-26T03:50:04;3.05;;;0.80;;
46439;SDS011;32138;50.966;6.968;2024-02-26T03:51:36;1.88;;;0.93;;
46439;SDS011;32138;50.966;6.968;2024-02-26T03:53:07;1.13;;;0.63;;
46439;SDS011;32138;50.966;6.968;2024-02-26T03:54:39;1.70;;;0.50;;
46439;SDS011;32138;50.966;6.968;2024-02-26T03:56:10;3.58;;;0.90;;
46439;SDS011;32138;50.966;6.968;2024-02-26T03:57:43;1.92;;;0.70;;
46439;SDS011;32138;50.966;6.968;2024-02-26T03:59:14;1.73;;;0.50;;
46439;SDS011;32138;50.966;6.968;2024-02-26T04:00:44;2.20;;;0.73;;
46439;SDS011;32138;50.966;6.968;2024-02-26T04:02:17;2.30;;;0.77;;
46439;SDS011;32138;50.966;6.968;2024-02-26T04:03:49;1.67;;;0.60;;
46439;SDS011;32138;50.966;6.968;2024-02-26T04:05:20;1.38;;;0.70;;
46439;SDS011;32138;50.966;6.968;2024-02-26T04:06:51;1.80;;;0.70;;
46439;SDS011;32138;50.966;6.968;2024-02-26T04:08:22;2.05;;;0.80;;
46439;SDS011;32138;50.966;6.968;2024-02-26T04:09:53;3.22;;;0.70;;
46439;SDS011;32138;50.966;6.968;2024-02-26T04:11:23;1.45;;;0.60;;
46439;SDS011;32138;50.966;6.968;2024-02-26T04:12:54;2.30;;;0.77;;
46439;SDS011;32138;50.966;6.968;2024-02-26T04:14:25;0.52;;;0.40;;
46439;SDS011;32138;50.966;6.968;2024-02-26T04:15:56;1.00;;;0.60;;
46439;SDS011;32138;50.966;6.968;2024-02-26T04:17:27;0.50;;;0.40;;
46439;SDS011;32138;50.966;6.968;2024-02-26T04:18:58;1.42;;;0.70;;
46439;SDS011;32138;50.966;6.968;2024-02-26T04:20:29;1.00;;;0.55;;
46439;SDS011;32138;50.966;6.968;2024-02-26T04:22:00;1.23;;;0.60;;
46439;SDS011;32138;50.966;6.968;2024-02-26T04:23:30;1.70;;;0.80;;
46439;SDS011;32138;50.966;6.968;2024-02-26T04:25:01;1.48;;;0.65;;
46439;SDS011;32138;50.966;6.968;2024-02-26T04:26:33;3.33;;;1.00;;
46439;SDS011;32138;50.966;6.968;2024-02-26T04:28:03;2.13;;;0.70;;
46439;SDS011;32138;50.966;6.968;2024-02-26T04:29:35;4.85;;;1.25;;
46439;SDS011;32138;50.966;6.968;2024-02-26T04:31:05;2.50;;;0.95;;
46439;SDS011;32138;50.966;6.968;2024-02-26T04:32:36;2.28;;;0.90;;
46439;SDS011;32138;50.966;6.968;2024-02-26T04:34:07;2.72;;;0.82;;
46439;SDS011;32138;50.966;6.968;2024-02-26T04:35:38;1.50;;;0.70;;
46439;SDS011;32138;50.966;6.968;2024-02-26T04:37:08;2.13;;;0.70;;
46439;SDS011;32138;50.966;6.968;2024-02-26T04:38:39;3.22;;;0.90;;
46439;SDS011;32138;50.966;6.968;2024-02-26T04:40:10;3.22;;;1.13;;
46439;SDS011;32138;50.966;6.968;2024-02-26T04:41:41;1.58;;;0.93;;
46439;SDS011;32138;50.966;6.968;2024-02-26T04:43:11;2.55;;;0.90;;
46439;SDS011;32138;50.966;6.968;2024-02-26T04:44:42;1.63;;;0.60;;
46439;SDS011;32138;50.966;6.968;2024-02-26T04:46:13;1.75;;;0.77;;
46439;SDS011;32138;50.966;6.968;2024-02-26T04:47:44;1.85;;;0.50;;
46439;SDS011;32138;50.966;6.968;2024-02-26T04:49:16;1.33;;;0.90;;
46439;SDS011;32138;50.966;6.968;2024-02-26T04:50:46;2.50;;;0.70;;
46439;SDS011;32138;50.966;6.968;2024-02-26T04:52:18;2.92;;;0.98;;
46439;SDS011;32138;50.966;6.968;2024-02-26T04:53:48;1.83;;;0.80;;
46439;SDS011;32138;50.966;6.968;2024-02-26T04:55:19;3.10;;;1.40;;
46439;SDS011;32138;50.966;6.968;2024-02-26T04:56:50;1.58;;;0.50;;
46439;SDS011;32138;50.966;6.968;2024-02-26T04:58:21;2.42;;;0.80;;
46439;SDS011;32138;50.966;6.968;2024-02-26T04:59:52;3.17;;;0.80;;
46439;SDS011;32138;50.966;6.968;2024-02-26T05:01:22;2.95;;;0.90;;
46439;SDS011;32138;50.966;6.968;2024-02-26T05:02:54;4.45;;;1.25;;
46439;SDS011;32138;50.966;6.968;2024-02-26T05:04:24;1.92;;;0.60;;
46439;SDS011;32138;50.966;6.968;2024-02-26T05:05:55;4.18;;;1.15;;
46439;SDS011;32138;50.966;6.968;2024-02-26T05:07:28;3.75;;;0.68;;
46439;SDS011;32138;50.966;6.968;2024-02-26T05:08:58;3.50;;;1.52;;
46439;SDS011;32138;50.966;6.968;2024-02-26T05:10:29;4.97;;;2.70;;
46439;SDS011;32138;50.966;6.968;2024-02-26T05:12:00;2.33;;;1.05;;
46439;SDS011;32138;50.966;6.968;2024-02-26T05:13:31;5.55;;;1.20;;
46439;SDS011;32138;50.966;6.968;2024-02-26T05:15:02;3.55;;;0.73;;
46439;SDS011;32138;50.966;6.968;2024-02-26T05:16:33;2.97;;;1.20;;
46439;SDS011;32138;50.966;6.968;2024-02-26T05:18:04;1.85;;;0.85;;
46439;SDS011;32138;50.966;6.968;2024-02-26T05:19:35;2.78;;;0.80;;
46439;SDS011;32138;50.966;6.968;2024-02-26T05:21:06;2.80;;;1.27;;
46439;SDS011;32138;50.966;6.968;2024-02-26T05:22:37;1.30;;;0.70;;
46439;SDS011;32138;50.966;6.968;2024-02-26T05:24:08;2.97;;;0.90;;
46439;SDS011;32138;50.966;6.968;2024-02-26T05:25:38;1.30;;;0.70;;
46439;SDS011;32138;50.966;6.968;2024-02-26T05:27:09;1.85;;;0.98;;
46439;SDS011;32138;50.966;6.968;2024-02-26T05:28:42;3.40;;;0.70;;
46439;SDS011;32138;50.966;6.968;2024-02-26T05:30:13;3.00;;;0.90;;
46439;SDS011;32138;50.966;6.968;2024-02-26T05:31:44;1.27;;;0.70;;
46439;SDS011;32138;50.966;6.968;2024-02-26T05:33:14;1.83;;;0.60;;
46439;SDS011;32138;50.966;6.968;2024-02-26T05:34:45;2.15;;;0.88;;
46439;SDS011;32138;50.966;6.968;2024-02-26T05:36:19;0.70;;;0.43;;
46439;SDS011;32138;50.966;6.968;2024-02-26T05:37:52;1.65;;;0.93;;
46439;SDS011;32138;50.966;6.968;2024-02-26T05:39:23;3.90;;;0.80;;
46439;SDS011;32138;50.966;6.968;2024-02-26T05:40:54;2.00;;;0.82;;
46439;SDS011;32138;50.966;6.968;2024-02-26T05:42:25;1.60;;;0.50;;
46439;SDS011;32138;50.966;6.968;2024-02-26T05:43:56;2.60;;;0.95;;
46439;SDS011;32138;50.966;6.968;2024-02-26T05:45:26;1.55;;;0.88;;
46439;SDS011;32138;50.966;6.968;2024-02-26T05:46:57;3.25;;;1.30;;
46439;SDS011;32138;50.966;6.968;2024-02-26T05:48:28;2.15;;;1.08;;
46439;SDS011;32138;50.966;6.968;2024-02-26T05:49:58;2.00;;;1.08;;
46439;SDS011;32138;50.966;6.968;2024-02-26T05:51:30;1.35;;;0.70;;
46439;SDS011;32138;50.966;6.968;2024-02-26T05:53:01;2.95;;;1.10;;
46439;SDS011;32138;50.966;6.968;2024-02-26T05:54:32;2.40;;;1.20;;
46439;SDS011;32138;50.966;6.968;2024-02-26T05:56:03;1.85;;;0.90;;
46439;SDS011;32138;50.966;6.968;2024-02-26T05:57:34;2.25;;;0.75;;
46439;SDS011;32138;50.966;6.968;2024-02-26T05:59:05;2.33;;;0.98;;
46439;SDS011;32138;50.966;6.968;2024-02-26T06:00:36;7.60;;;1.67;;
46439;SDS011;32138;50.966;6.968;2024-02-26T06:02:07;2.72;;;1.20;;
46439;SDS011;32138;50.966;6.968;2024-02-26T06:03:37;2.83;;;0.75;;
46439;SDS011;32138;50.966;6.968;2024-02-26T06:05:09;2.83;;;1.23;;
46439;SDS011;32138;50.966;6.968;2024-02-26T06:06:40;2.58;;;1.10;;
46439;SDS011;32138;50.966;6.968;2024-02-26T06:08:11;1.92;;;0.85;;
46439;SDS011;32138;50.966;6.968;2024-02-26T06:09:41;4.63;;;1.15;;
46439;SDS011;32138;50.966;6.968;2024-02-26T06:11:12;2.28;;;1.08;;
46439;SDS011;32138;50.966;6.968;2024-02-26T06:12:43;2.08;;;1.05;;
46439;SDS011;32138;50.966;6.968;2024-02-26T06:14:13;2.50;;;1.00;;
46439;SDS011;32138;50.966;6.968;2024-02-26T06:15:48;2.45;;;1.00;;
46439;SDS011;32138;50.966;6.968;2024-02-26T06:17:18;3.88;;;1.75;;
46439;SDS011;32138;50.966;6.968;2024-02-26T06:18:49;2.50;;;1.02;;
46439;SDS011;32138;50.966;6.968;2024-02-26T06:20:20;1.85;;;1.20;;
46439;SDS011;32138;50.966;6.968;2024-02-26T06:21:51;2.75;;;1.10;;
46439;SDS011;32138;50.966;6.968;2024-02-26T06:23:21;3.10;;;1.50;;
46439;SDS011;32138;50.966;6.968;2024-02-26T06:24:53;2.50;;;1.05;;
46439;SDS011;32138;50.966;6.968;2024-02-26T06:26:23;2.53;;;1.30;;
46439;SDS011;32138;50.966;6.968;2024-02-26T06:27:58;3.92;;;2.20;;
46439;SDS011;32138;50.966;6.968;2024-02-26T06:29:29;3.90;;;1.60;;
46439;SDS011;32138;50.966;6.968;2024-02-26T06:31:00;4.28;;;1.48;;
46439;SDS011;32138;50.966;6.968;2024-02-26T06:32:30;3.10;;;1.27;;
46439;SDS011;32138;50.966;6.968;2024-02-26T06:34:01;4.50;;;2.03;;
46439;SDS011;32138;50.966;6.968;2024-02-26T06:35:33;3.65;;;1.98;;
46439;SDS011;32138;50.966;6.968;2024-02-26T06:37:04;2.83;;;1.17;;
46439;SDS011;32138;50.966;6.968;2024-02-26T06:38:34;4.47;;;1.73;;
46439;SDS011;32138;50.966;6.968;2024-02-26T06:40:05;2.92;;;1.00;;
46439;SDS011;32138;50.966;6.968;2024-02-26T06:41:37;5.10;;;1.92;;
46439;SDS011;32138;50.966;6.968;2024-02-26T06:43:09;3.13;;;1.58;;
46439;SDS011;32138;50.966;6.968;2024-02-26T06:44:40;3.30;;;1.80;;
46439;SDS011;32138;50.966;6.968;2024-02-26T06:46:10;4.75;;;1.05;;
46439;SDS011;32138;50.966;6.968;2024-02-26T06:47:41;2.92;;;1.55;;
46439;SDS011;32138;50.966;6.968;2024-02-26T06:49:12;2.78;;;1.50;;
46439;SDS011;32138;50.966;6.968;2024-02-26T06:50:43;4.65;;;1.45;;
46439;SDS011;32138;50.966;6.968;2024-02-26T06:52:14;2.72;;;1.40;;
46439;SDS011;32138;50.966;6.968;2024-02-26T06:53:44;3.05;;;1.40;;
46439;SDS011;32138;50.966;6.968;2024-02-26T06:55:15;2.25;;;1.23;;
46439;SDS011;32138;50.966;6.968;2024-02-26T06:56:46;3.05;;;1.13;;
46439;SDS011;32138;50.966;6.968;2024-02-26T06:58:17;2.80;;;1.27;;
46439;SDS011;32138;50.966;6.968;2024-02-26T06:59:47;2.70;;;1.50;;
46439;SDS011;32138;50.966;6.968;2024-02-26T07:01:18;4.65;;;1.55;;
46439;SDS011;32138;50.966;6.968;2024-02-26T07:02:49;2.42;;;1.20;;
46439;SDS011;32138;50.966;6.968;2024-02-26T07:04:19;2.38;;;1.13;;
46439;SDS011;32138;50.966;6.968;2024-02-26T07:05:50;2.17;;;1.20;;
46439;SDS011;32138;50.966;6.968;2024-02-26T07:07:21;2.17;;;1.23;;
46439;SDS011;32138;50.966;6.968;2024-02-26T07:08:53;4.18;;;1.50;;
46439;SDS011;32138;50.966;6.968;2024-02-26T07:10:24;3.53;;;1.27;;
46439;SDS011;32138;50.966;6.968;2024-02-26T07:11:55;3.03;;;1.33;;
46439;SDS011;32138;50.966;6.968;2024-02-26T07:13:26;5.93;;;1.63;;
46439;SDS011;32138;50.966;6.968;2024-02-26T07:14:56;4.28;;;1.65;;
46439;SDS011;32138;50.966;6.968;2024-02-26T07:16:28;3.40;;;1.60;;
46439;SDS011;32138;50.966;6.968;2024-02-26T07:17:59;2.60;;;1.20;;
46439;SDS011;32138;50.966;6.968;2024-02-26T07:19:33;4.18;;;1.58;;
46439;SDS011;32138;50.966;6.968;2024-02-26T07:21:04;2.60;;;1.65;;
46439;SDS011;32138;50.966;6.968;2024-02-26T07:22:35;2.50;;;1.40;;
46439;SDS011;32138;50.966;6.968;2024-02-26T07:24:06;1.83;;;1.20;;
46439;SDS011;32138;50.966;6.968;2024-02-26T07:25:37;2.60;;;1.33;;
46439;SDS011;32138;50.966;6.968;2024-02-26T07:27:07;3.15;;;1.77;;
46439;SDS011;32138;50.966;6.968;2024-02-26T07:28:38;2.58;;;1.42;;
46439;SDS011;32138;50.966;6.968;2024-02-26T07:30:09;4.03;;;1.83;;
46439;SDS011;32138;50.966;6.968;2024-02-26T07:31:40;2.85;;;1.75;;
46439;SDS011;32138;50.966;6.968;2024-02-26T07:33:11;2.88;;;1.45;;
46439;SDS011;32138;50.966;6.968;2024-02-26T07:34:42;2.97;;;1.30;;
46439;SDS011;32138;50.966;6.968;2024-02-26T07:36:14;2.60;;;1.30;;
46439;SDS011;32138;50.966;6.968;2024-02-26T07:37:47;2.63;;;1.52;;
46439;SDS011;32138;50.966;6.968;2024-02-26T07:39:19;2.08;;;1.35;;
46439;SDS011;32138;50.966;6.968;2024-02-26T07:40:50;3.58;;;1.55;;
46439;SDS011;32138;50.966;6.968;2024-02-26T07:42:21;5.97;;;2.65;;
46439;SDS011;32138;50.966;6.968;2024-02-26T07:43:52;4.28;;;1.50;;
46439;SDS011;32138;50.966;6.968;2024-02-26T07:45:23;5.35;;;1.98;;
46439;SDS011;32138;50.966;6.968;2024-02-26T07:46:53;2.40;;;1.23;;
46439;SDS011;32138;50.966;6.968;2024-02-26T07:48:24;3.22;;;1.35;;
46439;SDS011;32138;50.966;6.968;2024-02-26T07:49:55;2.78;;;1.40;;
46439;SDS011;32138;50.966;6.968;2024-02-26T07:51:26;2.17;;;1.27;;
46439;SDS011;32138;50.966;6.968;2024-02-26T07:52:57;4.70;;;1.88;;
46439;SDS011;32138;50.966;6.968;2024-02-26T07:54:28;4.53;;;1.70;;
46439;SDS011;32138;50.966;6.968;2024-02-26T07:55:59;3.97;;;2.13;;
46439;SDS011;32138;50.966;6.968;2024-02-26T07:57:30;3.40;;;1.70;;
46439;SDS011;32138;50.966;6.968;2024-02-26T07:59:03;5.60;;;1.30;;
46439;SDS011;32138;50.966;6.968;2024-02-26T08:00:34;4.25;;;1.95;;
46439;SDS011;32138;50.966;6.968;2024-02-26T08:02:05;3.53;;;1.63;;
46439;SDS011;32138;50.966;6.968;2024-02-26T08:03:36;3.67;;;1.90;;
46439;SDS011;32138;50.966;6.968;2024-02-26T08:05:07;3.83;;;1.63;;
46439;SDS011;32138;50.966;6.968;2024-02-26T08:06:38;3.72;;;1.58;;
46439;SDS011;32138;50.966;6.968;2024-02-26T08:08:09;3.88;;;2.30;;
46439;SDS011;32138;50.966;6.968;2024-02-26T08:09:40;3.30;;;1.70;;
46439;SDS011;32138;50.966;6.968;2024-02-26T08:11:10;4.78;;;3.10;;
46439;SDS011;32138;50.966;6.968;2024-02-26T08:12:41;3.00;;;2.05;;
46439;SDS011;32138;50.966;6.968;2024-02-26T08:14:12;3.90;;;2.42;;
46439;SDS011;32138;50.966;6.968;2024-02-26T08:15:43;3.67;;;1.90;;
46439;SDS011;32138;50.966;6.968;2024-02-26T08:17:14;4.68;;;1.95;;
46439;SDS011;32138;50.966;6.968;2024-02-26T08:18:45;3.78;;;2.13;;
46439;SDS011;32138;50.966;6.968;2024-02-26T08:20:15;3.53;;;2.28;;
46439;SDS011;32138;50.966;6.968;2024-02-26T08:21:46;3.28;;;1.80;;
46439;SDS011;32138;50.966;6.968;2024-02-26T08:23:17;3.70;;;1.50;;
46439;SDS011;32138;50.966;6.968;2024-02-26T08:24:48;5.28;;;2.10;;
46439;SDS011;32138;50.966;6.968;2024-02-26T08:26:18;3.72;;;1.85;;
46439;SDS011;32138;50.966;6.968;2024-02-26T08:27:50;5.10;;;1.88;;
46439;SDS011;32138;50.966;6.968;2024-02-26T08:29:21;4.47;;;1.85;;
46439;SDS011;32138;50.966;6.968;2024-02-26T08:30:52;3.80;;;1.58;;
46439;SDS011;32138;50.966;6.968;2024-02-26T08:32:22;6.25;;;1.83;;
46439;SDS011;32138;50.966;6.968;2024-02-26T08:33:54;3.83;;;1.83;;
46439;SDS011;32138;50.966;6.968;2024-02-26T08:35:24;3.75;;;2.25;;
46439;SDS011;32138;50.966;6.968;2024-02-26T08:36:55;4.45;;;1.58;;
46439;SDS011;32138;50.966;6.968;2024-02-26T08:38:26;3.08;;;1.30;;
46439;SDS011;32138;50.966;6.968;2024-02-26T08:39:57;3.05;;;1.38;;
46439;SDS011;32138;50.966;6.968;2024-02-26T08:41:27;3.70;;;1.60;;
46439;SDS011;32138;50.966;6.968;2024-02-26T08:42:58;5.07;;;1.80;;
46439;SDS011;32138;50.966;6.968;2024-02-26T08:44:29;3.53;;;1.42;;
46439;SDS011;32138;50.966;6.968;2024-02-26T08:46:00;3.25;;;1.60;;
46439;SDS011;32138;50.966;6.968;2024-02-26T08:47:30;3.97;;;2.45;;
46439;SDS011;32138;50.966;6.968;2024-02-26T08:49:02;7.15;;;2.47;;
46439;SDS011;32138;50.966;6.968;2024-02-26T08:50:34;3.53;;;1.90;;
46439;SDS011;32138;50.966;6.968;2024-02-26T08:52:05;3.55;;;2.13;;
46439;SDS011;32138;50.966;6.968;2024-02-26T08:53:36;2.55;;;1.60;;
46439;SDS011;32138;50.966;6.968;2024-02-26T08:55:07;4.13;;;1.60;;
46439;SDS011;32138;50.966;6.968;2024-02-26T08:56:38;3.50;;;1.65;;
46439;SDS011;32138;50.966;6.968;2024-02-26T08:58:09;3.08;;;1.52;;
46439;SDS011;32138;50.966;6.968;2024-02-26T08:59:40;3.25;;;1.67;;
46439;SDS011;32138;50.966;6.968;2024-02-26T09:01:11;2.72;;;1.55;;
46439;SDS011;32138;50.966;6.968;2024-02-26T09:02:41;3.72;;;2.08;;
46439;SDS011;32138;50.966;6.968;2024-02-26T09:04:13;4.78;;;2.20;;
46439;SDS011;32138;50.966;6.968;2024-02-26T09:05:44;3.65;;;1.38;;
46439;SDS011;32138;50.966;6.968;2024-02-26T09:07:15;3.38;;;1.90;;
46439;SDS011;32138;50.966;6.968;2024-02-26T09:08:46;4.95;;;2.00;;